Time;durP1;ratioP1;P1;durP2;ratioP2;P2;SDS_P1;SDS_P2;PMS_P1;PMS_P2;Temp;Humidity;BMP_temperature;BMP_pressure;BME280_temperature;BME280_humidity;BME280_pressure;Samples;Min_cycle;Max_cycle;Signal;HPM_P1;HPM_P2
2022/04/22 00:02:01;;;;;;;10.25;7.88;;;11.20;69.20;;;;;;6120414;23;20435;-78
2022/04/22 00:04:33;;;;;;;10.88;8.57;;;11.20;68.90;;;;;;6147344;23;20443;-79
2022/04/22 00:07:01;;;;;;;11.23;7.25;;;11.20;70.60;;;;;;6122122;23;20452;-78
2022/04/22 00:09:28;;;;;;;10.73;8.30;;;11.10;71.90;;;;;;6125161;23;20911;-77
2022/04/22 00:11:55;;;;;;;9.23;8.05;;;11.00;72.50;;;;;;6122597;23;20383;-79
2022/04/22 00:14:22;;;;;;;9.25;7.95;;;10.90;73.30;;;;;;6118858;23;20378;-77
2022/04/22 00:16:49;;;;;;;11.07;8.13;;;10.90;73.10;;;;;;6120541;23;20379;-79
2022/04/22 00:19:16;;;;;;;9.40;7.67;;;10.90;73.60;;;;;;6119817;23;20458;-78
2022/04/22 00:21:44;;;;;;;10.48;8.02;;;10.90;73.40;;;;;;6122902;23;20931;-79
2022/04/22 00:24:11;;;;;;;9.32;7.90;;;10.90;73.50;;;;;;6120243;23;20403;-79
2022/04/22 00:26:38;;;;;;;9.25;7.55;;;10.90;74.20;;;;;;6123559;23;20372;-78
2022/04/22 00:29:05;;;;;;;9.98;8.07;;;10.80;74.00;;;;;;6124262;23;20458;-79
2022/04/22 00:31:32;;;;;;;11.00;8.23;;;10.80;74.20;;;;;;6124793;23;20375;-80
2022/04/22 00:33:59;;;;;;;9.03;8.10;;;10.80;74.40;;;;;;6108799;23;20467;-79
2022/04/22 00:36:26;;;;;;;9.23;7.40;;;10.80;74.10;;;;;;6111918;23;20686;-77
2022/04/22 00:38:53;;;;;;;13.80;8.43;;;10.80;73.80;;;;;;6125390;23;20372;-78
2022/04/22 00:41:20;;;;;;;10.95;8.40;;;10.60;75.80;;;;;;6125272;23;20372;-79
2022/04/22 00:43:53;;;;;;;9.43;8.43;;;10.60;75.80;;;;;;6127334;23;20864;-78
2022/04/22 00:46:20;;;;;;;12.65;9.95;;;10.60;75.30;;;;;;6117056;23;20873;-78
2022/04/22 00:48:47;;;;;;;13.38;9.93;;;10.70;75.10;;;;;;6117555;23;20387;-79
2022/04/22 00:51:14;;;;;;;11.95;9.15;;;10.60;75.00;;;;;;6123051;23;20379;-79
2022/04/22 00:53:44;;;;;;;11.20;9.43;;;10.70;74.80;;;;;;6131419;23;20371;-79
2022/04/22 00:56:12;;;;;;;13.05;9.32;;;10.70;75.10;;;;;;6124326;23;20375;-79
2022/04/22 00:58:40;;;;;;;11.02;9.45;;;10.70;74.70;;;;;;6123132;23;20430;-77
2022/04/22 01:01:08;;;;;;;11.65;8.95;;;10.70;74.80;;;;;;6122315;23;20376;-78
2022/04/22 01:03:35;;;;;;;10.65;8.63;;;10.60;74.60;;;;;;6121555;23;20379;-79
2022/04/22 01:11:37;;;;;;;11.38;9.88;;;10.50;75.30;;;;;;6124390;23;20722;-78
2022/04/22 01:14:05;;;;;;;13.43;9.73;;;10.60;74.80;;;;;;6123643;23;20380;-77
2022/04/22 01:16:33;;;;;;;12.85;10.25;;;10.60;74.80;;;;;;6121453;23;20429;-79
2022/04/22 01:19:00;;;;;;;13.63;9.80;;;10.60;75.90;;;;;;6125077;23;20954;-79
2022/04/22 01:21:27;;;;;;;11.07;9.20;;;10.50;75.80;;;;;;6121549;23;20379;-79
2022/04/22 01:23:54;;;;;;;10.10;8.63;;;10.50;75.10;;;;;;6123080;23;20411;-78
2022/04/22 01:26:21;;;;;;;11.30;9.27;;;10.50;74.60;;;;;;6122464;23;20434;-79
2022/04/22 01:28:49;;;;;;;11.20;10.00;;;10.50;75.50;;;;;;6121966;23;20459;-78
2022/04/22 01:31:16;;;;;;;11.43;9.80;;;10.40;76.60;;;;;;6121519;23;20380;-78
2022/04/22 01:33:43;;;;;;;10.98;8.88;;;10.30;77.20;;;;;;6125107;23;20689;-79
2022/04/22 01:36:10;;;;;;;9.70;8.60;;;10.30;76.70;;;;;;6127625;23;20387;-78
2022/04/22 01:38:37;;;;;;;10.75;9.13;;;10.40;76.50;;;;;;6132968;23;20962;-78
2022/04/22 01:41:04;;;;;;;9.63;8.45;;;10.40;76.30;;;;;;6126169;23;20851;-78
2022/04/22 01:43:31;;;;;;;9.93;8.07;;;10.40;75.70;;;;;;6125640;23;20457;-79
2022/04/22 01:45:58;;;;;;;10.82;9.63;;;10.40;75.10;;;;;;6122694;23;20383;-78
2022/04/22 01:48:25;;;;;;;10.85;8.23;;;10.50;75.30;;;;;;6123384;23;20387;-78
2022/04/22 01:50:52;;;;;;;9.60;8.25;;;10.50;74.90;;;;;;6124234;23;20898;-79
2022/04/22 01:53:18;;;;;;;10.15;8.85;;;10.50;74.70;;;;;;6109864;23;20861;-79
2022/04/22 01:55:46;;;;;;;9.85;8.82;;;10.50;75.20;;;;;;6124802;23;20379;-79
2022/04/22 01:58:13;;;;;;;10.25;8.65;;;10.50;75.30;;;;;;6129006;23;20384;-79
2022/04/22 02:00:40;;;;;;;11.55;8.82;;;10.50;74.90;;;;;;6124997;23;20397;-79
2022/04/22 02:03:07;;;;;;;12.48;8.75;;;10.50;74.70;;;;;;6124673;23;20391;-79
2022/04/22 02:05:34;;;;;;;10.77;9.30;;;10.50;74.70;;;;;;6126367;23;20387;-79
2022/04/22 02:08:01;;;;;;;10.50;8.77;;;10.50;74.20;;;;;;6122315;23;20388;-78
2022/04/22 02:10:28;;;;;;;11.57;9.55;;;10.50;73.90;;;;;;6124080;23;20379;-79
2022/04/22 02:12:55;;;;;;;9.73;8.38;;;10.40;75.40;;;;;;6121814;23;20387;-79
2022/04/22 02:15:22;;;;;;;10.07;9.07;;;10.40;75.30;;;;;;6124047;23;20434;-79
2022/04/22 02:17:49;;;;;;;10.02;9.05;;;10.40;75.80;;;;;;6125992;23;20383;-79
2022/04/22 02:20:16;;;;;;;11.98;9.43;;;10.40;75.80;;;;;;6124023;23;20415;-78
2022/04/22 02:22:43;;;;;;;12.43;9.55;;;10.30;76.90;;;;;;6123075;23;20372;-78
2022/04/22 02:25:10;;;;;;;12.50;10.93;;;10.20;77.70;;;;;;6123428;23;20480;-79
2022/04/22 02:30:23;;;;;;;11.98;10.07;;;10.00;78.30;;;;;;6124853;23;20781;-78
2022/04/22 02:32:50;;;;;;;12.23;10.13;;;10.00;78.10;;;;;;6122713;23;20376;-78
2022/04/22 02:35:21;;;;;;;10.98;9.77;;;10.00;78.70;;;;;;6121468;23;20379;-79
2022/04/22 02:37:49;;;;;;;12.88;10.35;;;10.00;78.30;;;;;;6122571;23;20391;-78
2022/04/22 02:45:49;;;;;;;12.98;10.35;;;10.00;77.50;;;;;;6125613;23;20387;-80
2022/04/22 02:48:16;;;;;;;13.52;10.20;;;10.00;77.20;;;;;;6124226;23;20380;-78
2022/04/22 02:50:43;;;;;;;11.68;10.00;;;10.10;76.90;;;;;;6122801;23;20868;-78
2022/04/22 02:53:10;;;;;;;13.40;10.37;;;10.10;77.10;;;;;;6122026;23;20448;-78
2022/04/22 02:55:41;;;;;;;12.32;10.48;;;10.10;77.90;;;;;;6123117;23;20383;-79
2022/04/22 02:58:08;;;;;;;12.30;9.15;;;10.10;78.30;;;;;;6126639;23;20372;-79
2022/04/22 03:00:34;;;;;;;10.98;9.18;;;10.00;77.80;;;;;;6125809;23;20386;-79
2022/04/22 03:03:02;;;;;;;16.30;11.30;;;10.10;77.50;;;;;;6109986;23;20385;-80
2022/04/22 03:05:30;;;;;;;10.63;9.50;;;10.10;77.30;;;;;;6149026;23;20434;-78
2022/04/22 03:07:57;;;;;;;11.90;10.02;;;10.10;77.20;;;;;;6122098;23;20380;-79
2022/04/22 03:10:24;;;;;;;11.77;10.07;;;10.20;77.60;;;;;;6121733;23;20403;-79
2022/04/22 03:12:51;;;;;;;12.80;10.90;;;10.10;77.30;;;;;;6123990;23;20379;-79
2022/04/22 03:15:18;;;;;;;13.40;10.25;;;10.00;77.90;;;;;;6121622;23;20372;-79
2022/04/22 03:17:45;;;;;;;11.52;10.35;;;9.90;78.20;;;;;;6121470;23;20938;-79
2022/04/22 03:20:11;;;;;;;13.07;10.68;;;9.90;78.50;;;;;;6123074;23;20375;-78
2022/04/22 03:22:38;;;;;;;10.80;9.70;;;9.90;78.50;;;;;;6125733;23;20383;-79
2022/04/22 03:25:06;;;;;;;13.23;10.50;;;9.90;78.50;;;;;;6121867;23;20384;-78
2022/04/22 03:27:32;;;;;;;12.35;10.52;;;9.90;78.20;;;;;;6124944;23;20384;-79
2022/04/22 03:30:02;;;;;;;12.90;11.13;;;9.90;78.60;;;;;;6117072;23;20379;-79
2022/04/22 03:32:30;;;;;;;12.70;10.55;;;9.90;78.20;;;;;;6112959;23;20375;-78
2022/04/22 03:34:57;;;;;;;11.27;9.77;;;10.00;77.70;;;;;;6120506;23;20479;-79
2022/04/22 03:37:24;;;;;;;12.15;10.00;;;10.00;76.70;;;;;;6120701;23;20404;-79
2022/04/22 03:39:53;;;;;;;11.85;10.27;;;10.10;76.60;;;;;;6120854;23;20765;-77
2022/04/22 03:42:20;;;;;;;14.70;10.82;;;10.10;76.50;;;;;;6109104;23;20363;-78
2022/04/22 03:44:47;;;;;;;14.88;11.73;;;10.10;76.40;;;;;;6121567;23;20371;-77
2022/04/22 03:47:13;;;;;;;80.82;54.33;;;10.10;76.70;;;;;;6119569;23;20380;-79
2022/04/22 03:49:42;;;;;;;57.60;40.03;;;10.00;76.60;;;;;;6120469;23;20745;-79
2022/04/22 03:52:09;;;;;;;51.95;34.58;;;10.00;76.70;;;;;;6120443;23;20435;-79
2022/04/22 03:54:36;;;;;;;30.58;22.10;;;10.00;76.70;;;;;;6122336;23;20407;-78
2022/04/22 03:59:49;;;;;;;19.75;15.65;;;9.90;76.60;;;;;;6122609;23;20411;-78
2022/04/22 04:02:16;;;;;;;35.13;24.88;;;10.00;75.90;;;;;;6109127;23;20383;-79
2022/04/22 04:04:42;;;;;;;41.58;29.75;;;9.90;77.10;;;;;;6121950;23;20392;-79
2022/04/22 04:07:10;;;;;;;36.22;27.90;;;10.00;76.40;;;;;;6109178;23;20379;-79
2022/04/22 04:18:10;;;;;;;16.45;13.15;;;10.00;77.90;;;;;;6122461;23;20384;-78
2022/04/22 04:23:22;;;;;;;19.73;13.90;;;9.80;79.70;;;;;;6117545;23;20706;-79
2022/04/22 04:25:50;;;;;;;14.68;12.48;;;9.80;80.90;;;;;;6121712;23;20382;-79
2022/04/22 04:28:17;;;;;;;17.23;14.10;;;9.80;81.10;;;;;;6107854;23;20420;-79
2022/04/22 04:30:46;;;;;;;15.52;13.82;;;9.80;80.80;;;;;;6120639;23;20443;-79
2022/04/22 04:33:13;;;;;;;20.40;14.85;;;9.80;80.90;;;;;;6120809;23;20697;-79
2022/04/22 04:35:43;;;;;;;17.70;13.52;;;9.80;81.20;;;;;;6122118;23;20376;-78
2022/04/22 04:38:10;;;;;;;17.75;13.60;;;9.80;80.60;;;;;;6122452;23;20392;-78
2022/04/22 04:40:37;;;;;;;16.52;14.07;;;9.90;80.30;;;;;;6124213;23;20371;-79
2022/04/22 04:43:05;;;;;;;18.85;14.60;;;9.90;80.00;;;;;;6125463;23;20384;-78
2022/04/22 04:45:36;;;;;;;15.50;13.05;;;9.90;80.70;;;;;;6122067;23;20380;-78
2022/04/22 04:48:03;;;;;;;16.17;13.10;;;9.90;79.90;;;;;;6120533;23;20935;-79
2022/04/22 04:50:31;;;;;;;15.60;13.52;;;9.90;80.10;;;;;;6121253;23;20384;-79
2022/04/22 04:52:58;;;;;;;19.30;13.10;;;9.90;79.90;;;;;;6111426;23;20442;-78
2022/04/22 04:55:26;;;;;;;15.20;13.50;;;9.90;80.30;;;;;;6119801;23;20379;-79
2022/04/22 04:57:53;;;;;;;16.08;12.63;;;9.90;80.50;;;;;;6121876;23;20384;-79
2022/04/22 05:00:20;;;;;;;14.35;12.07;;;9.90;80.40;;;;;;6100581;23;20391;-79
2022/04/22 05:02:49;;;;;;;16.15;12.40;;;9.90;80.10;;;;;;6117788;23;20372;-78
2022/04/22 05:05:16;;;;;;;14.85;12.02;;;10.00;79.80;;;;;;6121927;23;20455;-79
2022/04/22 05:07:56;;;;;;;15.30;12.38;;;10.00;79.80;;;;;;6121351;23;20372;-78
2022/04/22 05:10:29;;;;;;;14.98;11.63;;;10.00;81.50;;;;;;6122130;23;20387;-80
2022/04/22 05:12:57;;;;;;;13.13;11.50;;;10.00;80.20;;;;;;6111965;23;20501;-79
2022/04/22 05:15:24;;;;;;;15.77;12.40;;;10.00;80.40;;;;;;6121399;23;20380;-78
2022/04/22 05:17:53;;;;;;;16.08;12.25;;;9.90;81.20;;;;;;6120928;23;20427;-79
2022/04/22 05:20:25;;;;;;;16.33;11.60;;;9.90;81.30;;;;;;6122368;23;20509;-79
2022/04/22 05:22:53;;;;;;;13.63;12.18;;;10.00;81.10;;;;;;6122411;23;20875;-79
2022/04/22 05:25:21;;;;;;;13.25;11.85;;;10.00;81.10;;;;;;6110899;23;20376;-79
2022/04/22 05:27:49;;;;;;;15.30;11.98;;;10.10;81.00;;;;;;6112430;23;20386;-81
2022/04/22 05:33:03;;;;;;;15.57;12.07;;;10.00;81.60;;;;;;6123817;23;20414;-79
2022/04/22 05:35:31;;;;;;;16.40;12.53;;;10.10;80.90;;;;;;6123807;23;20855;-80
2022/04/22 05:38:05;;;;;;;17.02;13.90;;;10.10;81.70;;;;;;6121233;23;20451;-80
2022/04/22 05:40:37;;;;;;;16.30;13.38;;;10.00;82.20;;;;;;6121947;23;20376;-79
2022/04/22 05:43:06;;;;;;;18.70;13.63;;;10.00;82.80;;;;;;6122828;23;20379;-79
2022/04/22 05:45:34;;;;;;;15.40;13.73;;;9.90;83.20;;;;;;6114262;23;20398;-78
2022/04/22 05:48:02;;;;;;;23.92;17.70;;;9.90;83.50;;;;;;6122095;23;20380;-80
2022/04/22 05:50:29;;;;;;;23.25;14.98;;;9.80;83.60;;;;;;6122767;23;20891;-77
2022/04/22 05:52:57;;;;;;;20.75;14.88;;;9.70;83.60;;;;;;6111646;23;20468;-80
2022/04/22 05:55:33;;;;;;;19.38;13.60;;;9.80;83.80;;;;;;6122963;23;20372;-79
2022/04/22 05:58:00;;;;;;;17.37;13.90;;;9.80;83.40;;;;;;6123684;23;20518;-80
2022/04/22 06:00:31;;;;;;;18.13;13.70;;;9.90;82.80;;;;;;6121870;23;20375;-79
2022/04/22 06:03:00;;;;;;;19.50;14.03;;;10.00;82.20;;;;;;6122624;23;20427;-80
2022/04/22 06:05:27;;;;;;;16.40;13.55;;;10.10;81.80;;;;;;6122792;23;20757;-77
2022/04/22 06:10:42;;;;;;;18.73;13.68;;;10.30;80.70;;;;;;6126339;23;21214;-79
2022/04/22 06:13:09;;;;;;;17.17;13.68;;;10.40;80.80;;;;;;6111738;23;20414;-79
2022/04/22 06:15:37;;;;;;;15.77;13.25;;;10.40;79.80;;;;;;6121865;23;20379;-80
2022/04/22 06:18:04;;;;;;;17.50;14.45;;;10.50;79.30;;;;;;6119865;23;20396;-79
2022/04/22 06:20:31;;;;;;;18.90;15.15;;;10.50;79.50;;;;;;6122059;23;20380;-79
2022/04/22 06:23:00;;;;;;;18.83;14.97;;;10.60;79.80;;;;;;6122630;23;20411;-79
2022/04/22 06:25:30;;;;;;;17.50;15.57;;;10.60;79.30;;;;;;6121363;23;20376;-81
2022/04/22 06:27:57;;;;;;;19.08;14.52;;;10.60;78.80;;;;;;6097171;23;20372;-79
2022/04/22 06:30:24;;;;;;;19.05;15.45;;;10.70;78.50;;;;;;6123838;23;20379;-80
2022/04/22 06:32:53;;;;;;;18.67;14.80;;;10.80;78.10;;;;;;6119141;23;20376;-78
2022/04/22 06:35:21;;;;;;;17.93;15.23;;;10.80;77.50;;;;;;6122709;23;20372;-77
2022/04/22 06:37:53;;;;;;;19.50;15.02;;;10.90;77.40;;;;;;6120591;23;20371;-79
2022/04/22 06:45:53;;;;;;;15.80;13.90;;;10.90;77.10;;;;;;6121371;23;20431;-80
2022/04/22 06:48:35;;;;;;;16.65;14.55;;;11.10;76.80;;;;;;6121590;23;20431;-80
2022/04/22 06:51:13;;;;;;;15.98;14.25;;;11.20;76.20;;;;;;6123450;23;20375;-80
2022/04/22 06:53:41;;;;;;;16.93;14.47;;;11.30;76.10;;;;;;6123014;23;21145;-78
2022/04/22 06:56:09;;;;;;;15.70;14.05;;;11.30;76.10;;;;;;6118794;23;20382;-79
2022/04/22 06:58:37;;;;;;;18.38;13.80;;;11.40;75.40;;;;;;6119391;23;20391;-77
2022/04/22 07:01:09;;;;;;;16.35;14.63;;;11.50;75.10;;;;;;6106600;23;20884;-79
2022/04/22 07:03:57;;;;;;;15.57;13.02;;;11.50;74.40;;;;;;6120133;23;20454;-79
2022/04/22 07:06:25;;;;;;;15.90;13.70;;;11.60;74.10;;;;;;6121900;23;20387;-79
2022/04/22 07:08:53;;;;;;;15.07;13.30;;;11.70;73.60;;;;;;6121880;23;20376;-79
2022/04/22 07:11:26;;;;;;;16.02;13.10;;;11.80;73.00;;;;;;6145782;23;20431;-79
2022/04/22 07:13:55;;;;;;;15.43;13.20;;;11.90;72.00;;;;;;6121307;23;20668;-77
2022/04/22 07:16:24;;;;;;;17.77;13.55;;;12.00;71.20;;;;;;6118009;23;20407;-80
2022/04/22 07:18:55;;;;;;;18.33;13.70;;;12.10;71.00;;;;;;6097002;23;20786;-82
2022/04/22 07:21:25;;;;;;;16.23;13.02;;;12.10;71.00;;;;;;6097066;23;20432;-79
2022/04/22 07:23:58;;;;;;;15.20;11.13;;;12.20;70.90;;;;;;6121714;23;20868;-80
2022/04/22 07:26:27;;;;;;;16.98;10.35;;;12.30;69.70;;;;;;6121421;23;20383;-80
2022/04/22 07:28:57;;;;;;;13.27;9.68;;;12.50;65.50;;;;;;6123712;23;20398;-78
2022/04/22 07:31:29;;;;;;;10.45;8.55;;;12.60;64.60;;;;;;6124366;23;20370;-77
2022/04/22 07:33:57;;;;;;;12.80;8.15;;;12.80;62.40;;;;;;6111274;23;20389;-79
2022/04/22 07:36:24;;;;;;;12.38;8.32;;;12.90;60.00;;;;;;6119192;23;20375;-79
2022/04/22 07:38:51;;;;;;;11.80;8.15;;;13.00;58.50;;;;;;6121524;23;20388;-79
2022/04/22 07:41:25;;;;;;;10.88;8.23;;;13.00;59.50;;;;;;6123100;23;20452;-80
2022/04/22 07:46:48;;;;;;;10.55;8.30;;;13.10;58.00;;;;;;6124689;23;20379;-77
2022/04/22 07:49:16;;;;;;;11.27;8.30;;;13.30;56.50;;;;;;6120683;23;20438;-79
2022/04/22 07:51:43;;;;;;;12.27;8.35;;;13.30;57.20;;;;;;6109894;23;20411;-78
2022/04/22 07:54:14;;;;;;;13.32;8.13;;;13.30;57.80;;;;;;6111472;23;20378;-80
2022/04/22 07:56:43;;;;;;;11.82;7.93;;;13.30;57.00;;;;;;6121782;23;20372;-79
2022/04/22 07:59:11;;;;;;;12.83;7.50;;;13.40;56.50;;;;;;6120922;23;20410;-79
2022/04/22 08:01:38;;;;;;;11.57;8.40;;;13.50;56.20;;;;;;6121225;23;20442;-78
2022/04/22 08:04:06;;;;;;;9.45;7.45;;;13.70;54.70;;;;;;6145605;23;20395;-79
2022/04/22 08:06:33;;;;;;;10.48;8.10;;;13.70;56.60;;;;;;6122050;23;20384;-81
2022/04/22 08:09:00;;;;;;;12.05;7.90;;;13.70;56.40;;;;;;6122749;23;20387;-78
2022/04/22 08:11:28;;;;;;;9.23;8.00;;;13.90;55.10;;;;;;6120391;23;20880;-79
2022/04/22 08:13:56;;;;;;;12.20;8.15;;;13.90;55.10;;;;;;6122838;23;20718;-81
2022/04/22 08:16:26;;;;;;;9.55;7.65;;;14.00;56.40;;;;;;6122845;23;20384;-80
2022/04/22 08:18:53;;;;;;;11.02;7.85;;;14.10;55.80;;;;;;6122660;23;20383;-79
2022/04/22 08:21:32;;;;;;;12.20;8.13;;;14.20;55.30;;;;;;6108697;23;20388;-80
2022/04/22 08:24:03;;;;;;;10.63;8.00;;;14.40;54.10;;;;;;6120927;23;20442;-79
2022/04/22 08:26:32;;;;;;;16.00;9.20;;;14.50;54.50;;;;;;6122240;23;20411;-78
2022/04/22 08:29:02;;;;;;;15.00;10.45;;;14.50;54.20;;;;;;6120206;23;20387;-80
2022/04/22 08:31:32;;;;;;;13.13;9.75;;;14.50;54.40;;;;;;6098816;23;20386;-81
2022/04/22 08:34:00;;;;;;;11.87;9.03;;;14.50;54.20;;;;;;6120524;23;20390;-78
2022/04/22 08:36:28;;;;;;;11.80;8.95;;;14.40;54.90;;;;;;6121295;23;20391;-78
2022/04/22 08:38:57;;;;;;;11.82;9.30;;;14.50;57.00;;;;;;6120383;23;20391;-79
2022/04/22 08:41:25;;;;;;;11.87;8.77;;;14.70;57.80;;;;;;6108076;23;20405;-81
2022/04/22 08:43:56;;;;;;;14.35;9.68;;;14.80;58.20;;;;;;6094516;23;20399;-80
2022/04/22 08:51:56;;;;;;;13.13;10.02;;;15.10;58.00;;;;;;6125930;23;20383;-78
2022/04/22 08:54:29;;;;;;;11.27;9.77;;;15.20;57.50;;;;;;6124721;23;20403;-78
2022/04/22 08:56:57;;;;;;;13.02;9.38;;;15.10;56.30;;;;;;6121531;23;20681;-79
2022/04/22 08:59:25;;;;;;;11.05;8.93;;;15.20;56.60;;;;;;6118716;23;20709;-78
2022/04/22 09:01:55;;;;;;;12.65;9.02;;;15.20;55.10;;;;;;6125743;23;20434;-79
2022/04/22 09:04:22;;;;;;;12.65;9.50;;;15.20;56.40;;;;;;6125701;23;20403;-78
2022/04/22 09:06:50;;;;;;;10.02;8.32;;;15.10;56.10;;;;;;6122891;23;20384;-80
2022/04/22 09:09:18;;;;;;;11.60;8.25;;;15.10;53.40;;;;;;6123059;23;20387;-80
2022/04/22 09:11:45;;;;;;;9.63;7.40;;;15.20;54.00;;;;;;6123549;23;20464;-79
2022/04/22 09:14:19;;;;;;;8.93;7.10;;;15.40;53.70;;;;;;6122541;23;20376;-79
2022/04/22 09:16:46;;;;;;;11.50;7.05;;;15.40;51.00;;;;;;6122611;23;20812;-81
2022/04/22 09:19:18;;;;;;;8.45;7.40;;;15.50;52.80;;;;;;6124081;23;20378;-80
2022/04/22 09:21:56;;;;;;;10.20;7.35;;;15.50;52.60;;;;;;6124410;23;20391;-80
2022/04/22 09:24:23;;;;;;;7.95;6.80;;;15.60;51.70;;;;;;6123220;23;20462;-80
2022/04/22 09:27:08;;;;;;;7.93;6.97;;;15.80;51.60;;;;;;6121885;23;20380;-78
2022/04/22 09:29:57;;;;;;;10.88;7.60;;;15.90;52.90;;;;;;6123022;23;20380;-78
2022/04/22 09:32:27;;;;;;;8.13;6.95;;;16.10;52.90;;;;;;6122148;23;20876;-81
2022/04/22 09:35:24;;;;;;;8.77;7.03;;;16.10;52.80;;;;;;6122577;23;20423;-80
2022/04/22 09:43:47;;;;;;;10.07;6.38;;;16.30;51.10;;;;;;6123362;23;20887;-78
2022/04/22 09:46:30;;;;;;;10.52;6.13;;;16.30;51.30;;;;;;6121647;23;20387;-79
2022/04/22 09:48:59;;;;;;;7.00;6.28;;;16.30;51.70;;;;;;6121314;23;20372;-81
2022/04/22 09:51:30;;;;;;;7.43;6.07;;;16.30;49.30;;;;;;6122507;23;20596;-81
2022/04/22 09:54:10;;;;;;;6.75;5.57;;;16.30;50.20;;;;;;6120992;23;20375;-80
2022/04/22 09:56:38;;;;;;;7.70;5.78;;;16.30;50.30;;;;;;6122373;23;20860;-78
2022/04/22 09:59:24;;;;;;;6.10;5.43;;;16.60;49.70;;;;;;6116226;23;20404;-80
2022/04/22 10:01:51;;;;;;;7.45;5.65;;;16.80;48.60;;;;;;6107484;23;20380;-80
2022/04/22 10:04:28;;;;;;;8.43;5.30;;;16.90;50.00;;;;;;6146681;23;20380;-79
2022/04/22 10:06:56;;;;;;;7.22;5.28;;;17.00;49.50;;;;;;6122071;23;20819;-79
2022/04/22 10:09:24;;;;;;;7.75;6.32;;;17.00;49.40;;;;;;6122907;23;20380;-81
2022/04/22 10:11:52;;;;;;;6.68;5.97;;;17.00;49.70;;;;;;6121014;23;20384;-79
2022/04/22 10:14:38;;;;;;;8.52;6.32;;;16.70;49.90;;;;;;6123457;23;20389;-82
2022/04/22 10:17:06;;;;;;;9.60;6.63;;;16.70;51.30;;;;;;6121682;23;20467;-80
2022/04/22 10:19:34;;;;;;;9.82;5.65;;;16.80;50.70;;;;;;6122395;23;20853;-79
2022/04/22 10:22:04;;;;;;;7.90;6.15;;;16.90;50.20;;;;;;6096653;23;20407;-78
2022/04/22 10:24:31;;;;;;;8.02;6.10;;;17.20;50.00;;;;;;6120462;23;20705;-79
2022/04/22 10:27:03;;;;;;;6.90;6.18;;;17.30;49.80;;;;;;6121785;23;20380;-78
2022/04/22 10:29:50;;;;;;;7.35;5.70;;;17.50;49.70;;;;;;6121140;23;20379;-80
2022/04/22 10:32:19;;;;;;;7.60;5.40;;;17.80;50.60;;;;;;6114663;23;20862;-78
2022/04/22 10:34:46;;;;;;;8.52;6.70;;;18.10;50.90;;;;;;6116095;23;20392;-78
2022/04/22 10:37:20;;;;;;;7.85;6.53;;;18.20;50.50;;;;;;6112453;23;20382;-80
2022/04/22 10:39:52;;;;;;;8.45;5.97;;;17.90;51.10;;;;;;6123996;23;20435;-81
2022/04/22 10:42:29;;;;;;;7.78;5.75;;;17.60;50.70;;;;;;6120736;23;21355;-79
2022/04/22 10:47:49;;;;;;;2.65;1.30;;;17.70;51.00;;;;;;6124021;23;20384;-82
2022/04/22 10:50:34;;;;;;;2.00;1.25;;;17.60;50.70;;;;;;6123111;23;20768;-82
2022/04/22 10:53:05;;;;;;;2.08;1.35;;;17.50;51.20;;;;;;6122299;23;21236;-78
2022/04/22 10:55:34;;;;;;;1.13;0.87;;;17.40;49.70;;;;;;6121922;23;20375;-82
2022/04/22 10:58:13;;;;;;;2.00;1.13;;;17.50;50.10;;;;;;6123888;23;20380;-81
2022/04/22 11:00:45;;;;;;;1.60;1.50;;;17.50;51.70;;;;;;6122444;23;20388;-78
2022/04/22 11:03:19;;;;;;;1.80;1.67;;;17.60;51.00;;;;;;6123520;23;20375;-79
2022/04/22 11:05:47;;;;;;;2.00;1.30;;;17.70;52.10;;;;;;6120796;23;20872;-78
2022/04/22 11:08:29;;;;;;;1.60;1.00;;;17.60;51.90;;;;;;6123267;23;20446;-80
2022/04/22 11:11:00;;;;;;;0.90;0.80;;;18.10;52.50;;;;;;6120809;23;20390;-82
2022/04/22 11:13:38;;;;;;;1.23;0.68;;;18.50;48.80;;;;;;6121935;23;20387;-79
2022/04/22 11:16:07;;;;;;;0.70;0.47;;;18.80;47.60;;;;;;6120822;23;20452;-82
2022/04/22 11:18:41;;;;;;;1.42;0.50;;;18.80;46.30;;;;;;6120141;23;20375;-81
2022/04/22 11:21:39;;;;;;;1.07;0.47;;;18.70;45.40;;;;;;6122640;23;20375;-80
2022/04/22 11:24:15;;;;;;;1.70;0.40;;;18.70;46.00;;;;;;6122051;23;20430;-79
2022/04/22 11:26:44;;;;;;;1.48;0.55;;;18.80;45.90;;;;;;6122459;23;20380;-80
2022/04/22 11:29:11;;;;;;;1.30;0.52;;;18.80;45.50;;;;;;6122993;23;20370;-80
2022/04/22 11:31:39;;;;;;;0.80;0.43;;;18.70;45.70;;;;;;6121208;23;20384;-78
2022/04/22 11:34:12;;;;;;;1.20;0.68;;;18.60;47.50;;;;;;6120337;23;20868;-79
2022/04/22 11:36:47;;;;;;;0.70;0.50;;;18.40;47.40;;;;;;6121390;23;20380;-82
2022/04/22 11:39:17;;;;;;;0.87;0.50;;;18.20;48.40;;;;;;6144838;23;20438;-81
2022/04/22 11:41:57;;;;;;;0.75;0.40;;;18.30;48.00;;;;;;6120548;23;20434;-79
2022/04/22 11:44:25;;;;;;;1.50;0.50;;;18.30;47.20;;;;;;6117328;23;20368;-81
2022/04/22 11:46:52;;;;;;;0.55;0.40;;;18.30;47.40;;;;;;6120591;23;20713;-80
2022/04/22 11:49:37;;;;;;;0.68;0.50;;;18.50;47.90;;;;;;6120477;23;20386;-79
2022/04/22 11:52:04;;;;;;;0.70;0.50;;;18.30;47.70;;;;;;6120075;23;20865;-78
2022/04/22 11:54:31;;;;;;;0.95;0.60;;;18.50;48.40;;;;;;6121153;23;20376;-78
2022/04/22 11:56:58;;;;;;;1.13;0.40;;;18.80;46.80;;;;;;6121326;23;20878;-80
2022/04/22 11:59:25;;;;;;;1.15;0.50;;;18.70;46.10;;;;;;6121587;23;20391;-80
2022/04/22 12:10:14;;;;;;;1.20;0.70;;;18.60;48.20;;;;;;6120722;23;20399;-81
2022/04/22 12:12:48;;;;;;;0.80;0.60;;;18.70;47.10;;;;;;6121308;23;20375;-81
2022/04/22 12:15:21;;;;;;;1.43;0.50;;;18.60;48.50;;;;;;6120091;23;20406;-79
2022/04/22 12:17:48;;;;;;;1.30;0.82;;;18.80;47.90;;;;;;6121406;23;20443;-78
2022/04/22 12:20:15;;;;;;;1.80;0.70;;;18.70;48.40;;;;;;6119224;23;20868;-78
2022/04/22 12:22:42;;;;;;;2.00;0.63;;;18.90;47.00;;;;;;6122221;23;20704;-78
2022/04/22 12:25:10;;;;;;;2.25;0.60;;;18.80;47.10;;;;;;6122284;23;20388;-78
2022/04/22 12:27:38;;;;;;;0.80;0.60;;;18.80;48.00;;;;;;6121548;23;20419;-78
2022/04/22 12:30:11;;;;;;;0.70;0.60;;;18.90;47.00;;;;;;6122630;23;20910;-79
2022/04/22 12:32:39;;;;;;;1.85;0.70;;;19.00;46.20;;;;;;6121682;23;20370;-81
2022/04/22 12:35:14;;;;;;;1.35;0.70;;;18.90;46.70;;;;;;6122751;23;20402;-82
2022/04/22 12:37:52;;;;;;;1.17;0.60;;;19.20;46.00;;;;;;6121682;23;20375;-78
2022/04/22 12:40:26;;;;;;;1.70;0.50;;;19.40;46.90;;;;;;6121275;23;20663;-79
2022/04/22 12:42:53;;;;;;;0.80;0.60;;;19.60;45.70;;;;;;6121168;23;20387;-78
2022/04/22 12:54:03;;;;;;;0.98;0.70;;;20.20;44.60;;;;;;6122748;23;20407;-79
2022/04/22 12:56:31;;;;;;;0.88;0.65;;;20.30;44.80;;;;;;6121370;23;20753;-80
2022/04/22 12:58:59;;;;;;;2.17;1.00;;;20.30;43.50;;;;;;6121994;23;20407;-80
2022/04/22 13:01:37;;;;;;;2.80;1.23;;;20.50;43.10;;;;;;6122505;23;20852;-78
2022/04/22 13:04:05;;;;;;;3.20;1.50;;;20.10;43.30;;;;;;6121673;23;20410;-79
2022/04/22 13:06:42;;;;;;;2.93;2.20;;;19.90;44.90;;;;;;6122318;23;20375;-78
2022/04/22 13:09:15;;;;;;;4.30;1.50;;;19.80;44.70;;;;;;6121741;23;20376;-79
2022/04/22 13:11:42;;;;;;;3.03;1.40;;;19.90;43.90;;;;;;6122189;23;20872;-78
2022/04/22 13:14:10;;;;;;;1.80;1.60;;;19.90;45.30;;;;;;6120539;23;20383;-81
2022/04/22 13:16:37;;;;;;;2.10;1.40;;;19.90;44.30;;;;;;6121981;23;20721;-81
2022/04/22 13:19:11;;;;;;;2.58;1.55;;;19.90;44.40;;;;;;6122285;23;20430;-78
2022/04/22 13:21:40;;;;;;;2.15;1.70;;;20.30;44.70;;;;;;6121208;23;20379;-78
2022/04/22 13:24:07;;;;;;;2.90;2.70;;;19.70;45.00;;;;;;6121338;23;20703;-78
2022/04/22 13:26:36;;;;;;;3.10;2.70;;;19.80;45.80;;;;;;6120523;23;20379;-78
2022/04/22 13:29:06;;;;;;;3.88;3.00;;;19.90;46.00;;;;;;6121375;23;20388;-81
2022/04/22 13:31:35;;;;;;;3.15;2.65;;;20.10;46.00;;;;;;6122556;23;20423;-78
2022/04/22 13:34:03;;;;;;;3.38;3.08;;;19.80;45.60;;;;;;6120652;23;20415;-78
2022/04/22 13:36:32;;;;;;;3.67;3.30;;;19.40;47.00;;;;;;6123563;23;20427;-80
2022/04/22 13:38:58;;;;;;;3.70;3.40;;;19.70;48.10;;;;;;6121382;23;20383;-80
2022/04/22 13:41:25;;;;;;;4.35;3.10;;;19.50;47.40;;;;;;6122184;23;20383;-80
2022/04/22 13:43:52;;;;;;;4.57;3.33;;;19.20;48.40;;;;;;6122415;23;20867;-81
2022/04/22 13:54:36;;;;;;;4.82;3.58;;;18.70;48.50;;;;;;6120746;23;20451;-78
2022/04/22 13:57:03;;;;;;;2.95;2.67;;;18.70;50.10;;;;;;6121196;23;20709;-78
2022/04/22 13:59:30;;;;;;;4.10;3.45;;;18.70;49.60;;;;;;6122424;23;20383;-80
2022/04/22 14:01:57;;;;;;;4.35;3.25;;;18.50;49.50;;;;;;6121282;23;20400;-78
2022/04/22 14:04:24;;;;;;;3.38;3.08;;;18.60;49.80;;;;;;6145962;23;20379;-78
2022/04/22 14:06:51;;;;;;;2.97;2.63;;;18.50;49.60;;;;;;6122702;23;20384;-80
2022/04/22 14:09:18;;;;;;;4.10;2.30;;;18.40;49.00;;;;;;6122038;23;20370;-78
2022/04/22 14:11:46;;;;;;;2.80;2.30;;;18.50;49.00;;;;;;6122641;23;20444;-81